createdAt,value
2022-12-08T00:00:21.519Z,0.40
2022-12-08T00:02:49.173Z,0.70
2022-12-08T00:05:34.268Z,0.60
2022-12-08T00:08:32.048Z,0.50
2022-12-08T00:10:59.543Z,0.60
2022-12-08T00:13:26.952Z,0.63
2022-12-08T00:15:54.369Z,0.70
2022-12-08T00:18:21.889Z,0.53
2022-12-08T00:20:55.225Z,0.60
2022-12-08T00:23:24.055Z,0.50
2022-12-08T00:25:51.495Z,0.50
2022-12-08T00:28:19.091Z,0.47
2022-12-08T00:30:46.674Z,0.50
2022-12-08T00:33:14.145Z,0.50
2022-12-08T00:35:43.186Z,0.50
2022-12-08T00:38:10.926Z,0.50
2022-12-08T00:40:44.192Z,0.50
2022-12-08T00:43:11.738Z,0.43
2022-12-08T00:45:39.219Z,0.47
2022-12-08T00:48:07.186Z,0.50
2022-12-08T00:50:34.756Z,0.50
2022-12-08T00:53:02.250Z,0.60
2022-12-08T00:55:29.695Z,0.40
2022-12-08T00:57:58.465Z,0.70
2022-12-08T01:00:25.898Z,0.60
2022-12-08T01:02:53.349Z,0.50
2022-12-08T01:05:20.827Z,0.50
2022-12-08T01:07:49.299Z,0.63
2022-12-08T01:10:16.812Z,0.50
2022-12-08T01:12:44.239Z,0.70
2022-12-08T01:15:13.088Z,0.50
2022-12-08T01:17:40.515Z,0.57
2022-12-08T01:20:08.607Z,0.50
2022-12-08T01:22:36.149Z,0.70
2022-12-08T01:25:08.589Z,0.60
2022-12-08T01:27:36.089Z,0.60
2022-12-08T01:30:04.440Z,0.60
2022-12-08T01:32:33.432Z,0.50
2022-12-08T01:35:01.600Z,0.53
2022-12-08T01:37:30.250Z,0.70
2022-12-08T01:39:57.709Z,0.50
2022-12-08T01:42:25.698Z,0.60
2022-12-08T01:44:55.244Z,0.50
2022-12-08T01:47:23.757Z,0.80
2022-12-08T01:49:52.609Z,0.50
2022-12-08T01:52:23.699Z,0.60
2022-12-08T01:54:53.362Z,0.70
2022-12-08T01:57:23.132Z,0.50
2022-12-08T01:59:53.458Z,0.63
2022-12-08T02:02:21.165Z,0.50
2022-12-08T02:04:48.703Z,0.50
2022-12-08T02:07:18.189Z,0.53
2022-12-08T02:09:46.169Z,0.57
2022-12-08T02:12:13.662Z,0.57
2022-12-08T02:14:41.173Z,0.70
2022-12-08T02:17:15.937Z,0.60
2022-12-08T02:19:55.934Z,0.50
2022-12-08T02:22:29.246Z,0.40
2022-12-08T02:24:59.390Z,0.50
2022-12-08T02:27:38.543Z,0.60
2022-12-08T02:30:08.666Z,0.50
2022-12-08T02:32:45.926Z,0.50
2022-12-08T02:35:17.143Z,0.50
2022-12-08T02:37:47.683Z,0.60
2022-12-08T02:40:19.850Z,0.60
2022-12-08T02:42:49.449Z,0.53
2022-12-08T02:45:20.056Z,0.60
2022-12-08T02:47:47.701Z,0.50
2022-12-08T02:50:16.685Z,0.70
2022-12-08T02:52:44.850Z,0.50
2022-12-08T02:55:15.128Z,0.50
2022-12-08T02:57:49.895Z,0.43
2022-12-08T03:00:18.200Z,0.60
2022-12-08T03:02:49.410Z,0.60
2022-12-08T03:05:25.346Z,0.70
2022-12-08T03:07:55.980Z,0.60
2022-12-08T03:10:27.426Z,0.73
2022-12-08T03:12:57.278Z,0.60
2022-12-08T03:15:24.818Z,0.60
2022-12-08T03:17:53.433Z,0.60
2022-12-08T03:20:24.201Z,0.53
2022-12-08T03:22:53.625Z,0.60
2022-12-08T03:25:22.294Z,0.60
2022-12-08T03:27:49.835Z,0.50
2022-12-08T03:30:17.367Z,0.63
2022-12-08T03:32:47.730Z,0.67
2022-12-08T03:35:16.325Z,0.50
2022-12-08T03:37:45.155Z,0.60
2022-12-08T03:40:14.611Z,0.50
2022-12-08T03:42:42.147Z,0.60
2022-12-08T03:45:10.107Z,0.60
2022-12-08T03:47:37.901Z,0.53
2022-12-08T03:50:06.133Z,0.60
2022-12-08T03:52:33.824Z,0.60
2022-12-08T03:55:02.608Z,0.50
2022-12-08T03:57:30.064Z,0.60
2022-12-08T03:59:57.529Z,0.60
2022-12-08T04:02:25.032Z,0.57
2022-12-08T04:04:52.521Z,0.70
2022-12-08T04:07:19.921Z,0.50
2022-12-08T04:09:47.349Z,0.50
2022-12-08T04:12:16.151Z,0.57
2022-12-08T04:14:43.600Z,0.70
2022-12-08T04:17:11.021Z,0.60
2022-12-08T04:19:40.815Z,0.60
2022-12-08T04:22:08.281Z,0.50
2022-12-08T04:24:35.707Z,0.60
2022-12-08T04:27:03.173Z,0.90
2022-12-08T04:29:31.976Z,0.60
2022-12-08T04:31:59.450Z,0.67
2022-12-08T04:34:26.981Z,0.60
2022-12-08T04:36:54.429Z,0.60
2022-12-08T04:39:21.870Z,0.60
2022-12-08T04:41:49.489Z,0.73
2022-12-08T04:44:16.921Z,0.60
2022-12-08T04:46:45.724Z,0.70
2022-12-08T04:49:13.210Z,0.60
2022-12-08T04:51:40.631Z,0.60
2022-12-08T04:54:08.079Z,0.60
2022-12-08T04:56:35.504Z,0.53
2022-12-08T04:59:03.295Z,0.50
2022-12-08T05:01:30.795Z,0.50
2022-12-08T05:03:59.660Z,0.60
2022-12-08T05:06:27.101Z,0.50
2022-12-08T05:08:54.637Z,0.50
2022-12-08T05:11:22.062Z,0.60
2022-12-08T05:13:49.540Z,0.67
2022-12-08T05:16:17.401Z,0.50
2022-12-08T05:18:44.920Z,0.80
2022-12-08T05:21:13.650Z,0.60
2022-12-08T05:23:41.116Z,0.60
2022-12-08T05:26:08.723Z,0.70
2022-12-08T05:28:44.097Z,0.60
2022-12-08T05:31:12.073Z,0.50
2022-12-08T05:33:39.875Z,0.60
2022-12-08T05:36:07.691Z,0.60
2022-12-08T05:38:36.721Z,0.70
2022-12-08T05:41:04.224Z,0.60
2022-12-08T05:43:31.668Z,0.60
2022-12-08T05:45:59.137Z,0.53
2022-12-08T05:48:26.640Z,0.50
2022-12-08T05:50:54.080Z,0.50
2022-12-08T05:53:21.484Z,0.63
2022-12-08T05:55:50.237Z,0.60
2022-12-08T05:58:18.697Z,0.60
2022-12-08T06:00:46.570Z,0.60
2022-12-08T06:03:14.407Z,0.60
2022-12-08T06:05:42.574Z,0.73
2022-12-08T06:08:10.192Z,0.60
2022-12-08T06:10:38.604Z,0.67
2022-12-08T06:13:07.526Z,0.60
2022-12-08T06:15:35.081Z,0.60
2022-12-08T06:18:02.577Z,0.77
2022-12-08T06:20:29.999Z,0.60
2022-12-08T06:22:57.470Z,0.60
2022-12-08T06:25:25.298Z,0.50
2022-12-08T06:27:52.775Z,0.50
2022-12-08T06:30:21.710Z,0.60
2022-12-08T06:32:49.194Z,0.63
2022-12-08T06:35:41.331Z,0.70
2022-12-08T06:38:08.792Z,0.70
2022-12-08T06:40:36.207Z,0.50
2022-12-08T06:43:03.642Z,0.70
2022-12-08T06:45:32.478Z,0.60
2022-12-08T06:47:59.917Z,0.67
2022-12-08T06:50:27.340Z,0.77
2022-12-08T06:53:03.150Z,0.80
2022-12-08T06:55:57.730Z,0.50
2022-12-08T06:58:20.632Z,0.83
2022-12-08T07:00:49.528Z,0.70
2022-12-08T07:03:17.003Z,0.70
2022-12-08T07:05:44.453Z,0.70
2022-12-08T07:08:11.923Z,0.77
2022-12-08T07:10:39.656Z,0.60
2022-12-08T07:13:07.073Z,0.80
2022-12-08T07:15:34.629Z,0.60
2022-12-08T07:18:03.419Z,0.50
2022-12-08T07:20:30.864Z,0.70
2022-12-08T07:22:58.308Z,0.80
2022-12-08T07:25:25.809Z,0.60
2022-12-08T07:27:53.412Z,0.60
2022-12-08T07:30:21.026Z,0.60
2022-12-08T07:32:49.598Z,0.70
2022-12-08T07:35:18.387Z,0.60
2022-12-08T07:37:45.809Z,0.70
2022-12-08T07:40:13.891Z,0.70
2022-12-08T07:42:41.337Z,0.60
2022-12-08T07:45:09.283Z,0.60
2022-12-08T07:47:36.731Z,0.53
2022-12-08T07:50:04.607Z,0.93
2022-12-08T07:52:34.667Z,0.50
2022-12-08T07:55:02.082Z,0.47
2022-12-08T07:57:29.518Z,0.50
2022-12-08T07:59:56.998Z,0.30
2022-12-08T08:02:25.998Z,0.30
2022-12-08T08:04:55.027Z,0.30
2022-12-08T08:07:22.547Z,0.30
2022-12-08T08:09:51.376Z,0.30
2022-12-08T08:12:34.171Z,0.30
2022-12-08T08:15:01.934Z,0.30
2022-12-08T08:17:30.179Z,0.30
2022-12-08T08:19:58.050Z,0.30
2022-12-08T08:22:25.806Z,0.40
2022-12-08T08:24:54.811Z,0.30
2022-12-08T08:27:22.496Z,0.30
2022-12-08T08:29:49.924Z,0.35
2022-12-08T08:32:17.368Z,0.30
2022-12-08T08:34:44.815Z,0.30
2022-12-08T08:37:12.273Z,0.40
2022-12-08T08:39:39.764Z,0.30
2022-12-08T08:42:08.553Z,0.30
2022-12-08T08:44:37.339Z,0.40
2022-12-08T08:47:04.810Z,0.20
2022-12-08T08:49:32.221Z,0.30
2022-12-08T08:51:59.651Z,0.32
2022-12-08T08:54:29.064Z,0.30
2022-12-08T08:56:57.574Z,0.40
2022-12-08T08:59:26.376Z,0.40
2022-12-08T09:01:54.410Z,0.40
2022-12-08T09:04:22.388Z,0.30
2022-12-08T09:06:50.040Z,0.30
2022-12-08T09:09:17.698Z,0.32
2022-12-08T09:11:45.157Z,0.30
2022-12-08T09:14:13.038Z,0.38
2022-12-08T09:16:42.652Z,0.32
2022-12-08T09:19:10.258Z,0.43
2022-12-08T09:21:37.735Z,0.30
2022-12-08T09:24:05.274Z,0.30
2022-12-08T09:26:32.703Z,0.40
2022-12-08T09:29:00.401Z,0.40
2022-12-08T09:31:28.137Z,0.40
2022-12-08T09:33:57.134Z,0.40
2022-12-08T09:36:24.587Z,0.30
2022-12-08T09:38:53.638Z,0.30
2022-12-08T09:41:24.618Z,0.40
2022-12-08T09:43:59.502Z,0.50
2022-12-08T09:46:28.131Z,0.40
2022-12-08T09:48:58.508Z,0.30
2022-12-08T09:51:27.331Z,0.40
2022-12-08T09:53:56.615Z,0.40
2022-12-08T09:56:24.815Z,0.40
2022-12-08T09:58:54.176Z,0.40
2022-12-08T10:01:22.605Z,0.40
2022-12-08T10:03:50.305Z,0.40
2022-12-08T10:06:25.717Z,0.40
2022-12-08T10:08:56.477Z,0.40
2022-12-08T10:11:27.826Z,0.50
2022-12-08T10:13:59.277Z,0.40
2022-12-08T10:16:31.092Z,0.40
2022-12-08T10:19:01.179Z,0.40
2022-12-08T10:21:31.588Z,0.35
2022-12-08T10:24:02.493Z,0.30
2022-12-08T10:26:32.650Z,0.40
2022-12-08T10:29:02.708Z,0.35
2022-12-08T10:31:31.655Z,0.38
2022-12-08T10:33:59.956Z,0.30
2022-12-08T10:36:42.282Z,0.40
2022-12-08T10:39:27.793Z,0.40
2022-12-08T10:41:55.249Z,0.40
2022-12-08T10:44:22.716Z,0.32
2022-12-08T10:46:50.307Z,0.40
2022-12-08T10:49:25.895Z,0.40
2022-12-08T10:51:53.335Z,0.30
2022-12-08T10:54:27.644Z,0.40
2022-12-08T10:56:55.663Z,0.38
2022-12-08T10:59:25.338Z,0.40
2022-12-08T11:01:53.911Z,0.30
2022-12-08T11:04:22.621Z,0.35
2022-12-08T11:06:50.858Z,0.38
2022-12-08T11:09:31.846Z,0.30
2022-12-08T11:12:00.198Z,0.30
2022-12-08T11:14:28.772Z,0.40
2022-12-08T11:16:57.714Z,0.30
2022-12-08T11:19:27.611Z,0.40
2022-12-08T11:21:55.414Z,0.40
2022-12-08T11:24:24.130Z,0.50
2022-12-08T11:26:54.406Z,0.30
2022-12-08T11:29:22.130Z,0.40
2022-12-08T11:31:53.220Z,0.32
2022-12-08T11:34:21.759Z,0.38
2022-12-08T11:36:50.557Z,0.30
2022-12-08T11:39:18.087Z,0.40
2022-12-08T11:41:45.840Z,0.40
2022-12-08T11:44:26.862Z,0.40
2022-12-08T11:46:56.880Z,0.30
2022-12-08T11:49:26.823Z,0.30
2022-12-08T11:51:58.301Z,0.40
2022-12-08T11:54:27.628Z,0.30
2022-12-08T11:56:56.700Z,0.40
2022-12-08T11:59:29.526Z,0.40
2022-12-08T12:01:57.916Z,0.40
2022-12-08T12:04:28.773Z,0.43
2022-12-08T12:07:15.055Z,0.32
2022-12-08T12:09:49.037Z,0.32
2022-12-08T12:12:22.164Z,0.40
2022-12-08T12:15:22.900Z,0.38
2022-12-08T12:17:53.490Z,0.30
2022-12-08T12:20:23.695Z,0.30
2022-12-08T12:22:53.328Z,0.40
2022-12-08T12:25:22.598Z,0.40
2022-12-08T12:27:51.064Z,0.30
2022-12-08T12:30:22.721Z,0.40
2022-12-08T12:32:52.929Z,0.30
2022-12-08T12:35:36.905Z,0.40
2022-12-08T12:38:26.002Z,0.30
2022-12-08T12:40:59.277Z,0.30
2022-12-08T12:43:30.161Z,0.40
2022-12-08T12:46:15.197Z,0.30
2022-12-08T12:48:42.652Z,0.40
2022-12-08T12:54:21.784Z,0.40
2022-12-08T12:56:50.557Z,0.32
2022-12-08T12:59:33.371Z,0.30
2022-12-08T13:02:02.509Z,0.30
2022-12-08T13:04:31.575Z,0.32
2022-12-08T13:06:59.364Z,0.30
2022-12-08T13:09:31.164Z,0.32
2022-12-08T13:12:00.459Z,0.30
2022-12-08T13:14:31.731Z,0.40
2022-12-08T13:17:01.090Z,0.30
2022-12-08T13:19:31.378Z,0.30
2022-12-08T13:21:59.080Z,0.30
2022-12-08T13:24:29.234Z,0.30
2022-12-08T13:27:11.642Z,0.30
2022-12-08T13:29:40.838Z,0.30
2022-12-08T13:33:16.263Z,0.40
2022-12-08T13:35:27.368Z,0.30
2022-12-08T13:37:55.591Z,0.30
2022-12-08T13:40:25.523Z,0.30
2022-12-08T13:42:58.810Z,0.30
2022-12-08T13:46:04.376Z,0.30
2022-12-08T13:48:35.212Z,0.30
2022-12-08T13:57:10.452Z,0.32
2022-12-08T14:00:00.824Z,0.40
2022-12-08T14:02:47.728Z,0.40
2022-12-08T14:05:18.996Z,0.30
2022-12-08T14:07:47.685Z,0.40
2022-12-08T14:10:17.200Z,0.40
2022-12-08T14:12:46.541Z,0.32
2022-12-08T14:15:14.716Z,0.40
2022-12-08T14:17:51.539Z,0.33
2022-12-08T14:20:21.322Z,0.50
2022-12-08T14:22:50.256Z,0.40
2022-12-08T14:25:18.104Z,0.50
2022-12-08T14:27:46.107Z,0.40
2022-12-08T14:30:19.420Z,0.30
2022-12-08T14:32:50.107Z,0.30
2022-12-08T14:35:23.152Z,0.50
2022-12-08T14:37:51.514Z,0.30
2022-12-08T14:40:23.524Z,0.47
2022-12-08T14:42:52.228Z,0.33
2022-12-08T14:45:20.079Z,0.30
2022-12-08T14:47:49.509Z,0.40
2022-12-08T14:50:41.633Z,0.30
2022-12-08T14:53:12.314Z,0.43
2022-12-08T14:55:40.031Z,0.40
2022-12-08T14:58:07.571Z,0.40
2022-12-08T15:00:35.122Z,0.40
2022-12-08T15:03:06.974Z,0.40
2022-12-08T15:05:34.558Z,0.30
2022-12-08T15:08:03.821Z,0.40
2022-12-08T15:10:31.933Z,0.40
2022-12-08T15:13:00.740Z,0.50
2022-12-08T15:15:28.670Z,0.43
2022-12-08T15:18:02.231Z,0.40
2022-12-08T15:20:35.885Z,0.50
2022-12-08T15:23:03.715Z,0.40
2022-12-08T15:25:31.247Z,0.50
2022-12-08T15:27:58.943Z,0.40
2022-12-08T15:30:27.237Z,0.40
2022-12-08T15:32:55.997Z,0.40
2022-12-08T15:35:23.496Z,0.53
2022-12-08T15:37:52.384Z,0.50
2022-12-08T15:40:20.873Z,0.53
2022-12-08T15:42:48.823Z,0.53
2022-12-08T15:45:17.149Z,0.50
2022-12-08T15:47:45.120Z,0.60
2022-12-08T15:50:15.921Z,0.50
2022-12-08T15:52:43.373Z,0.53
2022-12-08T15:55:14.727Z,0.67
2022-12-08T15:58:31.184Z,0.57
2022-12-08T16:07:12.949Z,0.60
2022-12-08T16:09:12.907Z,0.50
2022-12-08T16:12:09.363Z,0.53
2022-12-08T16:17:26.034Z,0.50
2022-12-08T16:19:53.444Z,0.70
2022-12-08T16:25:18.163Z,0.60
2022-12-08T16:28:01.495Z,0.80
2022-12-08T16:30:30.903Z,0.67
2022-12-08T16:33:00.522Z,0.77
2022-12-08T16:35:32.517Z,0.60
2022-12-08T16:38:00.351Z,0.50
2022-12-08T16:40:27.849Z,0.70
2022-12-08T16:42:55.765Z,0.50
2022-12-08T16:45:24.601Z,0.50
2022-12-08T16:47:53.599Z,0.70
2022-12-08T16:50:22.704Z,0.60
2022-12-08T16:52:50.866Z,0.60
2022-12-08T16:55:19.276Z,0.60
2022-12-08T16:57:47.044Z,0.67
2022-12-08T17:00:17.906Z,0.60
2022-12-08T17:02:45.763Z,0.50
2022-12-08T17:05:14.877Z,0.60
2022-12-08T17:07:43.070Z,0.60
2022-12-08T17:10:12.133Z,0.60
2022-12-08T17:12:39.601Z,0.50
2022-12-08T17:15:08.257Z,0.70
2022-12-08T17:17:37.424Z,0.60
2022-12-08T17:20:06.571Z,0.67
2022-12-08T17:22:35.116Z,0.70
2022-12-08T17:25:02.800Z,0.80
2022-12-08T17:27:30.289Z,0.60
2022-12-08T17:29:58.205Z,0.50
2022-12-08T17:32:25.726Z,0.70
2022-12-08T17:34:54.656Z,0.60
2022-12-08T17:37:22.767Z,0.63
2022-12-08T17:39:50.233Z,0.70
2022-12-08T17:42:17.717Z,0.60
2022-12-08T17:44:46.563Z,0.70
2022-12-08T17:47:14.060Z,0.60
2022-12-08T17:49:41.503Z,0.73
2022-12-08T17:52:11.225Z,0.60
2022-12-08T17:54:39.127Z,0.70
2022-12-08T17:57:06.789Z,0.80
2022-12-08T17:59:34.257Z,0.73
2022-12-08T18:02:01.802Z,0.87
2022-12-08T18:04:29.707Z,0.87
2022-12-08T18:06:59.255Z,0.53
2022-12-08T18:09:28.074Z,0.73
2022-12-08T18:11:55.537Z,0.60
2022-12-08T18:14:22.987Z,0.70
2022-12-08T18:16:50.516Z,0.70
2022-12-08T18:19:18.014Z,0.70
2022-12-08T18:21:45.491Z,0.70
2022-12-08T18:24:17.641Z,0.70
2022-12-08T18:26:46.854Z,0.60
2022-12-08T18:29:14.314Z,0.70
2022-12-08T18:31:41.831Z,0.53
2022-12-08T18:34:09.336Z,0.73
2022-12-08T18:36:36.808Z,0.70
2022-12-08T18:39:10.266Z,0.80
2022-12-08T18:41:38.307Z,0.80
2022-12-08T18:44:07.075Z,0.80
2022-12-08T18:46:34.640Z,0.73
2022-12-08T18:49:02.212Z,0.63
2022-12-08T18:51:29.704Z,0.70
2022-12-08T18:53:59.064Z,0.73
2022-12-08T18:56:27.619Z,0.77
2022-12-08T18:58:59.845Z,0.70
2022-12-08T19:01:30.406Z,0.60
2022-12-08T19:04:26.910Z,0.70
2022-12-08T19:06:46.163Z,0.67
2022-12-08T19:09:14.126Z,0.70
2022-12-08T19:11:41.768Z,0.70
2022-12-08T19:17:02.188Z,0.67
2022-12-08T19:19:29.660Z,0.70
2022-12-08T19:21:57.271Z,0.80
2022-12-08T19:24:24.862Z,0.70
2022-12-08T19:26:52.660Z,0.80
2022-12-08T19:29:20.306Z,0.80
2022-12-08T19:31:47.775Z,0.60
2022-12-08T19:34:16.669Z,0.90
2022-12-08T19:36:44.215Z,0.70
2022-12-08T19:39:33.878Z,0.70
2022-12-08T19:42:19.279Z,0.70
2022-12-08T19:44:56.296Z,0.70
2022-12-08T19:47:24.668Z,0.70
2022-12-08T19:49:54.666Z,0.60
2022-12-08T19:52:22.248Z,0.63
2022-12-08T19:54:49.746Z,0.80
2022-12-08T19:57:17.203Z,0.73
2022-12-08T19:59:44.818Z,0.70
2022-12-08T20:02:12.602Z,0.80
2022-12-08T20:04:40.135Z,0.60
2022-12-08T20:07:08.958Z,0.80
2022-12-08T20:09:36.457Z,0.80
2022-12-08T20:12:04.004Z,0.77
2022-12-08T20:14:31.471Z,0.80
2022-12-08T20:16:59.006Z,0.80
2022-12-08T20:19:26.452Z,0.60
2022-12-08T20:21:53.999Z,0.63
2022-12-08T20:24:22.836Z,0.93
2022-12-08T20:26:50.271Z,0.70
2022-12-08T20:29:18.680Z,0.60
2022-12-08T20:31:46.392Z,0.70
2022-12-08T20:34:14.863Z,0.77
2022-12-08T20:36:42.348Z,0.67
2022-12-08T20:39:12.005Z,0.60
2022-12-08T20:44:43.219Z,0.90
2022-12-08T20:47:11.398Z,0.60
2022-12-08T20:49:38.995Z,0.83
2022-12-08T20:52:06.686Z,0.80
2022-12-08T20:54:34.631Z,0.70
2022-12-08T20:57:03.614Z,0.70
2022-12-08T20:59:31.063Z,0.80
2022-12-08T21:02:00.277Z,0.80
2022-12-08T21:04:27.835Z,0.70
2022-12-08T21:06:55.713Z,0.63
2022-12-08T21:09:23.323Z,0.73
2022-12-08T21:11:51.303Z,0.70
2022-12-08T21:14:21.961Z,0.80
2022-12-08T21:16:50.826Z,0.73
2022-12-08T21:19:19.793Z,0.80
2022-12-08T21:21:47.322Z,0.87
2022-12-08T21:24:15.504Z,0.87
2022-12-08T21:26:43.069Z,0.73
2022-12-08T21:29:11.744Z,0.80
2022-12-08T21:31:40.681Z,0.60
2022-12-08T21:34:08.615Z,0.60
2022-12-08T21:36:36.375Z,0.90
2022-12-08T21:39:04.774Z,0.70
2022-12-08T21:41:50.079Z,0.60
2022-12-08T21:44:18.906Z,0.70
2022-12-08T21:46:48.312Z,0.80
2022-12-08T21:49:16.377Z,0.60
2022-12-08T21:51:44.091Z,0.70
2022-12-08T21:54:18.049Z,0.80
2022-12-08T21:56:46.685Z,1.00
2022-12-08T21:59:14.195Z,0.80
2022-12-08T22:01:43.268Z,0.70
2022-12-08T22:04:13.242Z,0.60
2022-12-08T22:06:40.891Z,0.80
2022-12-08T22:09:10.319Z,0.73
2022-12-08T22:11:38.234Z,0.73
2022-12-08T22:14:10.872Z,0.73
2022-12-08T22:16:41.562Z,0.80
2022-12-08T22:19:09.480Z,0.90
2022-12-08T22:21:38.499Z,0.60
2022-12-08T22:24:06.728Z,0.90
2022-12-08T22:26:34.418Z,0.70
2022-12-08T22:29:02.480Z,0.80
2022-12-08T22:31:30.035Z,0.70
2022-12-08T22:33:59.665Z,0.70
2022-12-08T22:36:27.700Z,0.80
2022-12-08T22:38:56.720Z,0.70
2022-12-08T22:41:24.483Z,0.70
2022-12-08T22:43:51.994Z,0.80
2022-12-08T22:46:20.922Z,0.90
2022-12-08T22:48:49.121Z,0.63
2022-12-08T22:51:16.994Z,0.80
2022-12-08T22:53:44.528Z,0.80
2022-12-08T22:56:13.830Z,0.70
2022-12-08T22:58:41.902Z,0.80
2022-12-08T23:01:09.909Z,0.80
2022-12-08T23:03:37.634Z,0.60
2022-12-08T23:06:12.494Z,0.63
2022-12-08T23:08:40.174Z,0.60
2022-12-08T23:11:07.747Z,0.90
2022-12-08T23:13:37.814Z,0.70
2022-12-08T23:16:05.616Z,0.80
2022-12-08T23:18:33.134Z,0.70
2022-12-08T23:21:03.751Z,0.90
2022-12-08T23:23:31.211Z,0.87
2022-12-08T23:25:58.837Z,0.90
2022-12-08T23:28:26.662Z,0.63
2022-12-08T23:30:55.712Z,0.70
2022-12-08T23:33:23.403Z,0.67
2022-12-08T23:35:56.450Z,0.70
2022-12-08T23:38:23.906Z,0.70
2022-12-08T23:40:51.546Z,0.70
2022-12-08T23:43:18.958Z,0.70
2022-12-08T23:45:47.229Z,0.80
2022-12-08T23:48:16.301Z,0.70
2022-12-08T23:50:43.894Z,0.80
2022-12-08T23:53:11.582Z,0.73
2022-12-08T23:55:39.227Z,0.93
2022-12-08T23:58:06.882Z,0.77
